sensor_id;sensor_type;location;lat;lon;timestamp;P1;durP1;ratioP1;P2;durP2;ratioP2
6898;SDS011;3488;42.616;23.350;2022-07-30T00:00:24;3.28;;;3.03;;
6898;SDS011;3488;42.616;23.350;2022-07-30T00:02:51;3.17;;;2.85;;
6898;SDS011;3488;42.616;23.350;2022-07-30T00:05:18;2.90;;;2.80;;
6898;SDS011;3488;42.616;23.350;2022-07-30T00:07:45;5.05;;;3.30;;
6898;SDS011;3488;42.616;23.350;2022-07-30T00:10:13;3.05;;;2.95;;
6898;SDS011;3488;42.616;23.350;2022-07-30T00:12:41;3.20;;;3.03;;
6898;SDS011;3488;42.616;23.350;2022-07-30T00:15:08;3.58;;;3.28;;
6898;SDS011;3488;42.616;23.350;2022-07-30T00:17:35;3.40;;;3.20;;
6898;SDS011;3488;42.616;23.350;2022-07-30T00:20:02;3.78;;;2.75;;
6898;SDS011;3488;42.616;23.350;2022-07-30T00:22:30;3.25;;;3.05;;
6898;SDS011;3488;42.616;23.350;2022-07-30T00:24:57;3.15;;;2.95;;
6898;SDS011;3488;42.616;23.350;2022-07-30T00:27:24;3.38;;;3.17;;
6898;SDS011;3488;42.616;23.350;2022-07-30T00:29:52;3.30;;;3.00;;
6898;SDS011;3488;42.616;23.350;2022-07-30T00:32:20;2.95;;;2.72;;
6898;SDS011;3488;42.616;23.350;2022-07-30T00:34:47;4.45;;;3.08;;
6898;SDS011;3488;42.616;23.350;2022-07-30T00:37:13;3.78;;;3.58;;
6898;SDS011;3488;42.616;23.350;2022-07-30T00:39:40;3.58;;;3.28;;
6898;SDS011;3488;42.616;23.350;2022-07-30T00:42:07;3.30;;;3.10;;
6898;SDS011;3488;42.616;23.350;2022-07-30T00:44:34;4.40;;;3.97;;
6898;SDS011;3488;42.616;23.350;2022-07-30T00:47:02;3.90;;;3.25;;
6898;SDS011;3488;42.616;23.350;2022-07-30T00:49:29;3.47;;;3.13;;
6898;SDS011;3488;42.616;23.350;2022-07-30T00:51:56;3.72;;;3.42;;
6898;SDS011;3488;42.616;23.350;2022-07-30T00:54:23;3.95;;;3.70;;
6898;SDS011;3488;42.616;23.350;2022-07-30T00:56:50;3.30;;;3.10;;
6898;SDS011;3488;42.616;23.350;2022-07-30T00:59:17;3.72;;;3.53;;
6898;SDS011;3488;42.616;23.350;2022-07-30T01:01:44;4.00;;;3.80;;
6898;SDS011;3488;42.616;23.350;2022-07-30T01:04:12;3.33;;;3.13;;
6898;SDS011;3488;42.616;23.350;2022-07-30T01:06:39;3.65;;;3.45;;
6898;SDS011;3488;42.616;23.350;2022-07-30T01:09:06;4.60;;;3.50;;
6898;SDS011;3488;42.616;23.350;2022-07-30T01:11:35;3.30;;;3.10;;
6898;SDS011;3488;42.616;23.350;2022-07-30T01:14:04;4.75;;;3.15;;
6898;SDS011;3488;42.616;23.350;2022-07-30T01:16:32;4.47;;;3.17;;
6898;SDS011;3488;42.616;23.350;2022-07-30T01:18:59;3.40;;;3.20;;
6898;SDS011;3488;42.616;23.350;2022-07-30T01:21:52;3.30;;;3.10;;
6898;SDS011;3488;42.616;23.350;2022-07-30T01:24:32;3.72;;;3.42;;
6898;SDS011;3488;42.616;23.350;2022-07-30T01:27:03;3.70;;;3.42;;
6898;SDS011;3488;42.616;23.350;2022-07-30T01:29:33;3.45;;;2.90;;
6898;SDS011;3488;42.616;23.350;2022-07-30T01:32:03;3.30;;;3.10;;
6898;SDS011;3488;42.616;23.350;2022-07-30T01:34:32;3.33;;;3.22;;
6898;SDS011;3488;42.616;23.350;2022-07-30T01:37:02;3.65;;;3.45;;
6898;SDS011;3488;42.616;23.350;2022-07-30T01:39:32;3.42;;;3.22;;
6898;SDS011;3488;42.616;23.350;2022-07-30T01:42:02;4.00;;;3.70;;
6898;SDS011;3488;42.616;23.350;2022-07-30T01:44:32;4.60;;;3.47;;
6898;SDS011;3488;42.616;23.350;2022-07-30T01:47:00;3.58;;;3.38;;
6898;SDS011;3488;42.616;23.350;2022-07-30T01:49:27;2.90;;;2.80;;
6898;SDS011;3488;42.616;23.350;2022-07-30T01:51:55;7.40;;;3.58;;
6898;SDS011;3488;42.616;23.350;2022-07-30T01:54:23;6.25;;;3.72;;
6898;SDS011;3488;42.616;23.350;2022-07-30T01:56:53;3.45;;;3.35;;
6898;SDS011;3488;42.616;23.350;2022-07-30T01:59:23;3.55;;;3.25;;
6898;SDS011;3488;42.616;23.350;2022-07-30T02:01:51;4.00;;;3.80;;
6898;SDS011;3488;42.616;23.350;2022-07-30T02:04:18;3.58;;;3.20;;
6898;SDS011;3488;42.616;23.350;2022-07-30T02:06:45;11.85;;;4.28;;
6898;SDS011;3488;42.616;23.350;2022-07-30T02:09:18;3.83;;;2.95;;
6898;SDS011;3488;42.616;23.350;2022-07-30T02:11:48;4.93;;;3.58;;
6898;SDS011;3488;42.616;23.350;2022-07-30T02:14:38;4.07;;;3.67;;
6898;SDS011;3488;42.616;23.350;2022-07-30T02:17:11;3.83;;;3.60;;
6898;SDS011;3488;42.616;23.350;2022-07-30T02:19:44;6.05;;;3.33;;
6898;SDS011;3488;42.616;23.350;2022-07-30T02:22:16;4.10;;;3.80;;
6898;SDS011;3488;42.616;23.350;2022-07-30T02:24:46;4.03;;;3.75;;
6898;SDS011;3488;42.616;23.350;2022-07-30T02:27:15;4.15;;;3.95;;
6898;SDS011;3488;42.616;23.350;2022-07-30T02:29:49;4.57;;;4.22;;
6898;SDS011;3488;42.616;23.350;2022-07-30T02:32:18;4.32;;;4.13;;
6898;SDS011;3488;42.616;23.350;2022-07-30T02:34:48;4.43;;;4.18;;
6898;SDS011;3488;42.616;23.350;2022-07-30T02:37:18;5.18;;;4.78;;
6898;SDS011;3488;42.616;23.350;2022-07-30T02:39:48;4.65;;;4.25;;
6898;SDS011;3488;42.616;23.350;2022-07-30T02:42:17;4.32;;;4.05;;
6898;SDS011;3488;42.616;23.350;2022-07-30T02:44:44;4.85;;;4.53;;
6898;SDS011;3488;42.616;23.350;2022-07-30T02:47:15;4.47;;;4.18;;
6898;SDS011;3488;42.616;23.350;2022-07-30T02:49:44;6.28;;;5.70;;
6898;SDS011;3488;42.616;23.350;2022-07-30T02:52:14;6.85;;;5.30;;
6898;SDS011;3488;42.616;23.350;2022-07-30T02:54:42;5.03;;;4.63;;
6898;SDS011;3488;42.616;23.350;2022-07-30T02:57:11;5.85;;;5.25;;
6898;SDS011;3488;42.616;23.350;2022-07-30T02:59:40;5.68;;;5.28;;
6898;SDS011;3488;42.616;23.350;2022-07-30T03:02:09;5.85;;;5.30;;
6898;SDS011;3488;42.616;23.350;2022-07-30T03:04:38;4.95;;;4.47;;
6898;SDS011;3488;42.616;23.350;2022-07-30T03:07:06;7.30;;;5.63;;
6898;SDS011;3488;42.616;23.350;2022-07-30T03:09:34;5.75;;;5.35;;
6898;SDS011;3488;42.616;23.350;2022-07-30T03:12:04;5.68;;;5.18;;
6898;SDS011;3488;42.616;23.350;2022-07-30T03:14:32;5.10;;;4.80;;
6898;SDS011;3488;42.616;23.350;2022-07-30T03:16:59;6.15;;;5.28;;
6898;SDS011;3488;42.616;23.350;2022-07-30T03:19:29;6.18;;;5.55;;
6898;SDS011;3488;42.616;23.350;2022-07-30T03:22:03;6.30;;;5.78;;
6898;SDS011;3488;42.616;23.350;2022-07-30T03:24:32;5.28;;;4.93;;
6898;SDS011;3488;42.616;23.350;2022-07-30T03:27:00;6.28;;;5.68;;
6898;SDS011;3488;42.616;23.350;2022-07-30T03:29:28;6.22;;;5.60;;
6898;SDS011;3488;42.616;23.350;2022-07-30T03:31:58;5.65;;;5.25;;
6898;SDS011;3488;42.616;23.350;2022-07-30T03:34:25;5.93;;;5.43;;
6898;SDS011;3488;42.616;23.350;2022-07-30T03:36:52;8.23;;;5.68;;
6898;SDS011;3488;42.616;23.350;2022-07-30T03:39:22;5.90;;;5.43;;
6898;SDS011;3488;42.616;23.350;2022-07-30T03:41:49;6.07;;;5.65;;
6898;SDS011;3488;42.616;23.350;2022-07-30T03:44:17;6.00;;;5.60;;
6898;SDS011;3488;42.616;23.350;2022-07-30T03:46:45;8.00;;;5.68;;
6898;SDS011;3488;42.616;23.350;2022-07-30T03:49:15;6.13;;;5.63;;
6898;SDS011;3488;42.616;23.350;2022-07-30T03:51:42;6.30;;;5.70;;
6898;SDS011;3488;42.616;23.350;2022-07-30T03:54:10;11.88;;;5.38;;
6898;SDS011;3488;42.616;23.350;2022-07-30T03:56:39;5.78;;;5.28;;
6898;SDS011;3488;42.616;23.350;2022-07-30T03:59:07;7.32;;;5.35;;
6898;SDS011;3488;42.616;23.350;2022-07-30T04:01:35;6.30;;;5.70;;
6898;SDS011;3488;42.616;23.350;2022-07-30T04:04:05;6.30;;;5.70;;
6898;SDS011;3488;42.616;23.350;2022-07-30T04:06:32;8.60;;;5.63;;
6898;SDS011;3488;42.616;23.350;2022-07-30T04:09:03;5.55;;;5.15;;
6898;SDS011;3488;42.616;23.350;2022-07-30T04:11:31;6.25;;;5.68;;
6898;SDS011;3488;42.616;23.350;2022-07-30T04:14:00;5.40;;;4.90;;
6898;SDS011;3488;42.616;23.350;2022-07-30T04:16:29;5.75;;;5.25;;
6898;SDS011;3488;42.616;23.350;2022-07-30T04:19:02;5.97;;;4.60;;
6898;SDS011;3488;42.616;23.350;2022-07-30T04:21:33;4.95;;;4.55;;
6898;SDS011;3488;42.616;23.350;2022-07-30T04:24:01;5.50;;;5.00;;
6898;SDS011;3488;42.616;23.350;2022-07-30T04:26:30;4.70;;;4.40;;
6898;SDS011;3488;42.616;23.350;2022-07-30T04:28:59;5.57;;;4.35;;
6898;SDS011;3488;42.616;23.350;2022-07-30T04:31:27;4.88;;;4.45;;
6898;SDS011;3488;42.616;23.350;2022-07-30T04:33:59;4.70;;;4.40;;
6898;SDS011;3488;42.616;23.350;2022-07-30T04:36:27;5.20;;;4.72;;
6898;SDS011;3488;42.616;23.350;2022-07-30T04:38:54;4.20;;;3.90;;
6898;SDS011;3488;42.616;23.350;2022-07-30T04:41:21;4.38;;;3.97;;
6898;SDS011;3488;42.616;23.350;2022-07-30T04:43:48;4.72;;;4.32;;
6898;SDS011;3488;42.616;23.350;2022-07-30T04:46:16;6.30;;;4.68;;
6898;SDS011;3488;42.616;23.350;2022-07-30T04:48:43;4.40;;;3.65;;
6898;SDS011;3488;42.616;23.350;2022-07-30T04:51:11;5.13;;;4.72;;
6898;SDS011;3488;42.616;23.350;2022-07-30T04:53:42;8.50;;;4.65;;
6898;SDS011;3488;42.616;23.350;2022-07-30T04:56:10;6.80;;;3.85;;
6898;SDS011;3488;42.616;23.350;2022-07-30T04:58:40;4.15;;;3.85;;
6898;SDS011;3488;42.616;23.350;2022-07-30T05:01:09;4.43;;;4.13;;
6898;SDS011;3488;42.616;23.350;2022-07-30T05:03:38;4.57;;;4.28;;
6898;SDS011;3488;42.616;23.350;2022-07-30T05:06:06;4.15;;;3.85;;
6898;SDS011;3488;42.616;23.350;2022-07-30T05:08:34;4.70;;;4.32;;
6898;SDS011;3488;42.616;23.350;2022-07-30T05:11:01;5.03;;;4.43;;
6898;SDS011;3488;42.616;23.350;2022-07-30T05:13:28;4.32;;;3.88;;
6898;SDS011;3488;42.616;23.350;2022-07-30T05:15:55;4.97;;;4.15;;
6898;SDS011;3488;42.616;23.350;2022-07-30T05:18:22;4.68;;;4.28;;
6898;SDS011;3488;42.616;23.350;2022-07-30T05:20:51;4.35;;;3.83;;
6898;SDS011;3488;42.616;23.350;2022-07-30T05:23:18;4.70;;;4.30;;
6898;SDS011;3488;42.616;23.350;2022-07-30T05:25:45;6.45;;;4.40;;
6898;SDS011;3488;42.616;23.350;2022-07-30T05:28:12;6.05;;;4.18;;
6898;SDS011;3488;42.616;23.350;2022-07-30T05:30:39;4.45;;;4.10;;
6898;SDS011;3488;42.616;23.350;2022-07-30T05:33:05;3.85;;;3.65;;
6898;SDS011;3488;42.616;23.350;2022-07-30T05:35:32;3.97;;;3.70;;
6898;SDS011;3488;42.616;23.350;2022-07-30T05:38:01;3.83;;;3.63;;
6898;SDS011;3488;42.616;23.350;2022-07-30T05:40:28;4.35;;;4.00;;
6898;SDS011;3488;42.616;23.350;2022-07-30T05:42:55;4.35;;;4.05;;
6898;SDS011;3488;42.616;23.350;2022-07-30T05:45:22;8.55;;;4.53;;
6898;SDS011;3488;42.616;23.350;2022-07-30T05:47:49;5.07;;;4.20;;
6898;SDS011;3488;42.616;23.350;2022-07-30T05:50:16;4.13;;;3.88;;
6898;SDS011;3488;42.616;23.350;2022-07-30T05:52:43;5.38;;;4.57;;
6898;SDS011;3488;42.616;23.350;2022-07-30T05:55:11;4.20;;;3.90;;
6898;SDS011;3488;42.616;23.350;2022-07-30T05:57:38;4.30;;;3.50;;
6898;SDS011;3488;42.616;23.350;2022-07-30T06:00:07;4.13;;;3.83;;
6898;SDS011;3488;42.616;23.350;2022-07-30T06:02:35;5.80;;;5.10;;
6898;SDS011;3488;42.616;23.350;2022-07-30T06:05:03;4.78;;;4.35;;
6898;SDS011;3488;42.616;23.350;2022-07-30T06:07:30;4.20;;;3.97;;
6898;SDS011;3488;42.616;23.350;2022-07-30T06:09:57;4.53;;;4.18;;
6898;SDS011;3488;42.616;23.350;2022-07-30T06:12:27;4.38;;;4.00;;
6898;SDS011;3488;42.616;23.350;2022-07-30T06:14:54;4.95;;;4.57;;
6898;SDS011;3488;42.616;23.350;2022-07-30T06:17:21;4.88;;;4.28;;
6898;SDS011;3488;42.616;23.350;2022-07-30T06:19:48;3.90;;;3.70;;
6898;SDS011;3488;42.616;23.350;2022-07-30T06:22:17;4.65;;;4.10;;
6898;SDS011;3488;42.616;23.350;2022-07-30T06:24:44;4.25;;;3.92;;
6898;SDS011;3488;42.616;23.350;2022-07-30T06:27:11;4.60;;;4.30;;
6898;SDS011;3488;42.616;23.350;2022-07-30T06:29:39;4.22;;;3.80;;
6898;SDS011;3488;42.616;23.350;2022-07-30T06:32:06;3.90;;;3.60;;
6898;SDS011;3488;42.616;23.350;2022-07-30T06:34:33;4.93;;;4.50;;
6898;SDS011;3488;42.616;23.350;2022-07-30T06:37:00;4.63;;;4.40;;
6898;SDS011;3488;42.616;23.350;2022-07-30T06:39:27;4.03;;;3.83;;
6898;SDS011;3488;42.616;23.350;2022-07-30T06:41:54;5.22;;;4.72;;
6898;SDS011;3488;42.616;23.350;2022-07-30T06:44:21;4.45;;;4.10;;
6898;SDS011;3488;42.616;23.350;2022-07-30T06:46:49;5.70;;;4.32;;
6898;SDS011;3488;42.616;23.350;2022-07-30T06:49:16;4.65;;;4.35;;
6898;SDS011;3488;42.616;23.350;2022-07-30T06:51:43;4.50;;;4.20;;
6898;SDS011;3488;42.616;23.350;2022-07-30T06:54:10;5.15;;;4.68;;
6898;SDS011;3488;42.616;23.350;2022-07-30T06:56:37;5.03;;;4.53;;
6898;SDS011;3488;42.616;23.350;2022-07-30T06:59:04;5.20;;;4.72;;
6898;SDS011;3488;42.616;23.350;2022-07-30T07:01:31;4.45;;;4.10;;
6898;SDS011;3488;42.616;23.350;2022-07-30T07:03:59;7.50;;;4.78;;
6898;SDS011;3488;42.616;23.350;2022-07-30T07:06:27;4.90;;;4.00;;
6898;SDS011;3488;42.616;23.350;2022-07-30T07:08:54;4.47;;;4.20;;
6898;SDS011;3488;42.616;23.350;2022-07-30T07:11:21;4.43;;;4.07;;
6898;SDS011;3488;42.616;23.350;2022-07-30T07:13:48;4.57;;;4.32;;
6898;SDS011;3488;42.616;23.350;2022-07-30T07:16:15;4.82;;;4.43;;
6898;SDS011;3488;42.616;23.350;2022-07-30T07:18:45;4.45;;;4.18;;
6898;SDS011;3488;42.616;23.350;2022-07-30T07:21:14;5.53;;;4.93;;
6898;SDS011;3488;42.616;23.350;2022-07-30T07:23:41;4.60;;;4.30;;
6898;SDS011;3488;42.616;23.350;2022-07-30T07:26:08;5.20;;;4.80;;
6898;SDS011;3488;42.616;23.350;2022-07-30T07:28:36;5.03;;;4.65;;
6898;SDS011;3488;42.616;23.350;2022-07-30T07:31:04;9.00;;;4.50;;
6898;SDS011;3488;42.616;23.350;2022-07-30T07:33:31;4.53;;;4.32;;
6898;SDS011;3488;42.616;23.350;2022-07-30T07:35:58;5.47;;;4.78;;
6898;SDS011;3488;42.616;23.350;2022-07-30T07:38:26;4.75;;;4.30;;
6898;SDS011;3488;42.616;23.350;2022-07-30T07:40:53;4.32;;;4.03;;
6898;SDS011;3488;42.616;23.350;2022-07-30T07:43:20;4.47;;;4.18;;
6898;SDS011;3488;42.616;23.350;2022-07-30T07:45:49;4.47;;;4.03;;
6898;SDS011;3488;42.616;23.350;2022-07-30T07:48:16;4.63;;;4.32;;
6898;SDS011;3488;42.616;23.350;2022-07-30T07:50:44;4.43;;;4.22;;
6898;SDS011;3488;42.616;23.350;2022-07-30T07:53:11;4.63;;;4.32;;
6898;SDS011;3488;42.616;23.350;2022-07-30T07:55:39;5.20;;;4.78;;
6898;SDS011;3488;42.616;23.350;2022-07-30T07:58:06;5.65;;;5.22;;
6898;SDS011;3488;42.616;23.350;2022-07-30T08:00:35;4.82;;;4.53;;
6898;SDS011;3488;42.616;23.350;2022-07-30T08:03:02;4.57;;;4.18;;
6898;SDS011;3488;42.616;23.350;2022-07-30T08:05:29;5.50;;;4.75;;
6898;SDS011;3488;42.616;23.350;2022-07-30T08:07:56;5.97;;;4.15;;
6898;SDS011;3488;42.616;23.350;2022-07-30T08:10:24;4.97;;;4.57;;
6898;SDS011;3488;42.616;23.350;2022-07-30T08:12:53;4.35;;;3.97;;
6898;SDS011;3488;42.616;23.350;2022-07-30T08:15:20;4.93;;;4.53;;
6898;SDS011;3488;42.616;23.350;2022-07-30T08:17:48;4.60;;;4.30;;
6898;SDS011;3488;42.616;23.350;2022-07-30T08:20:15;4.85;;;4.57;;
6898;SDS011;3488;42.616;23.350;2022-07-30T08:22:41;4.93;;;4.65;;
6898;SDS011;3488;42.616;23.350;2022-07-30T08:25:08;4.70;;;4.22;;
6898;SDS011;3488;42.616;23.350;2022-07-30T08:27:35;4.63;;;4.35;;
6898;SDS011;3488;42.616;23.350;2022-07-30T08:30:05;5.45;;;5.03;;
6898;SDS011;3488;42.616;23.350;2022-07-30T08:32:34;4.80;;;4.40;;
6898;SDS011;3488;42.616;23.350;2022-07-30T08:35:01;5.35;;;4.60;;
6898;SDS011;3488;42.616;23.350;2022-07-30T08:37:29;4.53;;;4.13;;
6898;SDS011;3488;42.616;23.350;2022-07-30T08:39:56;5.53;;;5.07;;
6898;SDS011;3488;42.616;23.350;2022-07-30T08:42:23;5.25;;;4.65;;
6898;SDS011;3488;42.616;23.350;2022-07-30T08:44:51;5.40;;;4.60;;
6898;SDS011;3488;42.616;23.350;2022-07-30T08:47:22;4.63;;;4.43;;
6898;SDS011;3488;42.616;23.350;2022-07-30T08:49:53;4.68;;;4.47;;
6898;SDS011;3488;42.616;23.350;2022-07-30T08:52:25;5.00;;;4.65;;
6898;SDS011;3488;42.616;23.350;2022-07-30T08:54:52;5.43;;;5.05;;
6898;SDS011;3488;42.616;23.350;2022-07-30T08:57:19;4.88;;;4.47;;
6898;SDS011;3488;42.616;23.350;2022-07-30T08:59:47;4.47;;;4.20;;
6898;SDS011;3488;42.616;23.350;2022-07-30T09:02:15;4.88;;;4.57;;
6898;SDS011;3488;42.616;23.350;2022-07-30T09:04:44;5.50;;;5.10;;
6898;SDS011;3488;42.616;23.350;2022-07-30T09:07:10;4.93;;;4.50;;
6898;SDS011;3488;42.616;23.350;2022-07-30T09:09:37;9.43;;;4.88;;
6898;SDS011;3488;42.616;23.350;2022-07-30T09:15:00;5.03;;;4.72;;
6898;SDS011;3488;42.616;23.350;2022-07-30T09:17:28;4.57;;;4.22;;
6898;SDS011;3488;42.616;23.350;2022-07-30T09:20:24;4.65;;;4.35;;
6898;SDS011;3488;42.616;23.350;2022-07-30T09:22:53;6.32;;;4.63;;
6898;SDS011;3488;42.616;23.350;2022-07-30T09:28:06;6.32;;;4.15;;
6898;SDS011;3488;42.616;23.350;2022-07-30T09:30:42;4.38;;;4.15;;
6898;SDS011;3488;42.616;23.350;2022-07-30T09:33:10;3.97;;;3.78;;
6898;SDS011;3488;42.616;23.350;2022-07-30T09:35:39;4.22;;;3.92;;
6898;SDS011;3488;42.616;23.350;2022-07-30T09:38:07;4.82;;;4.53;;
6898;SDS011;3488;42.616;23.350;2022-07-30T09:40:35;4.53;;;4.32;;
6898;SDS011;3488;42.616;23.350;2022-07-30T09:43:03;5.05;;;4.78;;
6898;SDS011;3488;42.616;23.350;2022-07-30T09:45:31;5.15;;;4.57;;
6898;SDS011;3488;42.616;23.350;2022-07-30T09:47:58;4.60;;;4.30;;
6898;SDS011;3488;42.616;23.350;2022-07-30T09:50:26;4.85;;;4.45;;
6898;SDS011;3488;42.616;23.350;2022-07-30T09:53:04;4.78;;;4.47;;
6898;SDS011;3488;42.616;23.350;2022-07-30T09:55:32;4.97;;;4.72;;
6898;SDS011;3488;42.616;23.350;2022-07-30T09:58:01;6.40;;;4.65;;
6898;SDS011;3488;42.616;23.350;2022-07-30T10:00:30;5.10;;;4.80;;
6898;SDS011;3488;42.616;23.350;2022-07-30T10:02:59;5.55;;;5.15;;
6898;SDS011;3488;42.616;23.350;2022-07-30T10:05:27;4.95;;;4.65;;
6898;SDS011;3488;42.616;23.350;2022-07-30T10:07:56;5.78;;;5.38;;
6898;SDS011;3488;42.616;23.350;2022-07-30T10:10:26;5.15;;;4.72;;
6898;SDS011;3488;42.616;23.350;2022-07-30T10:12:56;6.47;;;5.93;;
6898;SDS011;3488;42.616;23.350;2022-07-30T10:15:27;6.10;;;5.60;;
6898;SDS011;3488;42.616;23.350;2022-07-30T10:17:56;6.82;;;6.10;;
6898;SDS011;3488;42.616;23.350;2022-07-30T10:20:23;5.80;;;5.38;;
6898;SDS011;3488;42.616;23.350;2022-07-30T10:22:51;5.88;;;5.47;;
6898;SDS011;3488;42.616;23.350;2022-07-30T10:25:20;5.35;;;5.05;;
6898;SDS011;3488;42.616;23.350;2022-07-30T10:27:48;6.70;;;6.20;;
6898;SDS011;3488;42.616;23.350;2022-07-30T10:30:16;5.65;;;5.30;;
6898;SDS011;3488;42.616;23.350;2022-07-30T10:32:44;7.20;;;6.40;;
6898;SDS011;3488;42.616;23.350;2022-07-30T10:35:12;6.63;;;6.13;;
6898;SDS011;3488;42.616;23.350;2022-07-30T10:37:40;7.13;;;6.28;;
6898;SDS011;3488;42.616;23.350;2022-07-30T10:40:12;6.47;;;6.07;;
6898;SDS011;3488;42.616;23.350;2022-07-30T10:42:54;6.35;;;5.97;;
6898;SDS011;3488;42.616;23.350;2022-07-30T10:45:38;5.97;;;5.43;;
6898;SDS011;3488;42.616;23.350;2022-07-30T10:48:13;7.55;;;6.90;;
6898;SDS011;3488;42.616;23.350;2022-07-30T10:50:48;6.13;;;5.40;;
6898;SDS011;3488;42.616;23.350;2022-07-30T10:53:32;5.70;;;5.30;;
6898;SDS011;3488;42.616;23.350;2022-07-30T10:56:09;6.30;;;5.80;;
6898;SDS011;3488;42.616;23.350;2022-07-30T10:59:03;6.40;;;4.95;;
6898;SDS011;3488;42.616;23.350;2022-07-30T11:04:32;5.35;;;5.05;;
6898;SDS011;3488;42.616;23.350;2022-07-30T11:09:57;4.85;;;4.55;;
6898;SDS011;3488;42.616;23.350;2022-07-30T11:15:20;5.53;;;5.03;;
6898;SDS011;3488;42.616;23.350;2022-07-30T11:17:57;5.38;;;5.03;;
6898;SDS011;3488;42.616;23.350;2022-07-30T11:20:26;5.78;;;5.22;;
6898;SDS011;3488;42.616;23.350;2022-07-30T11:22:53;6.55;;;4.95;;
6898;SDS011;3488;42.616;23.350;2022-07-30T11:25:37;6.57;;;6.07;;
6898;SDS011;3488;42.616;23.350;2022-07-30T11:28:06;6.10;;;5.55;;
6898;SDS011;3488;42.616;23.350;2022-07-30T11:30:55;5.95;;;5.57;;
6898;SDS011;3488;42.616;23.350;2022-07-30T11:33:22;6.05;;;5.55;;
6898;SDS011;3488;42.616;23.350;2022-07-30T11:36:09;5.57;;;5.28;;
6898;SDS011;3488;42.616;23.350;2022-07-30T11:38:50;6.20;;;5.70;;
6898;SDS011;3488;42.616;23.350;2022-07-30T11:41:26;6.38;;;5.97;;
6898;SDS011;3488;42.616;23.350;2022-07-30T11:46:53;8.57;;;6.03;;
6898;SDS011;3488;42.616;23.350;2022-07-30T11:49:20;6.88;;;6.38;;
6898;SDS011;3488;42.616;23.350;2022-07-30T11:51:47;6.60;;;6.10;;
6898;SDS011;3488;42.616;23.350;2022-07-30T11:54:15;6.22;;;5.70;;
6898;SDS011;3488;42.616;23.350;2022-07-30T11:56:47;6.82;;;6.28;;
6898;SDS011;3488;42.616;23.350;2022-07-30T11:59:16;7.15;;;6.45;;
6898;SDS011;3488;42.616;23.350;2022-07-30T12:01:44;6.25;;;5.75;;
6898;SDS011;3488;42.616;23.350;2022-07-30T12:04:16;6.13;;;5.65;;
6898;SDS011;3488;42.616;23.350;2022-07-30T12:06:44;7.28;;;6.45;;
6898;SDS011;3488;42.616;23.350;2022-07-30T12:09:12;5.60;;;5.22;;
6898;SDS011;3488;42.616;23.350;2022-07-30T12:11:47;6.63;;;6.18;;
6898;SDS011;3488;42.616;23.350;2022-07-30T12:14:14;6.20;;;5.78;;
6898;SDS011;3488;42.616;23.350;2022-07-30T12:16:41;7.15;;;6.55;;
6898;SDS011;3488;42.616;23.350;2022-07-30T12:19:16;6.18;;;5.68;;
6898;SDS011;3488;42.616;23.350;2022-07-30T12:21:43;6.05;;;5.05;;
6898;SDS011;3488;42.616;23.350;2022-07-30T12:24:10;6.32;;;5.70;;
6898;SDS011;3488;42.616;23.350;2022-07-30T12:26:37;7.75;;;6.90;;
6898;SDS011;3488;42.616;23.350;2022-07-30T12:29:05;6.55;;;5.95;;
6898;SDS011;3488;42.616;23.350;2022-07-30T12:31:34;6.72;;;6.22;;
6898;SDS011;3488;42.616;23.350;2022-07-30T12:34:01;5.88;;;5.47;;
6898;SDS011;3488;42.616;23.350;2022-07-30T12:36:30;6.47;;;6.07;;
6898;SDS011;3488;42.616;23.350;2022-07-30T12:39:00;7.15;;;6.47;;
6898;SDS011;3488;42.616;23.350;2022-07-30T12:44:10;6.78;;;6.28;;
6898;SDS011;3488;42.616;23.350;2022-07-30T12:47:00;6.85;;;6.22;;
6898;SDS011;3488;42.616;23.350;2022-07-30T12:49:28;7.63;;;6.80;;
6898;SDS011;3488;42.616;23.350;2022-07-30T12:51:57;7.07;;;6.38;;
6898;SDS011;3488;42.616;23.350;2022-07-30T12:54:24;7.30;;;6.70;;
6898;SDS011;3488;42.616;23.350;2022-07-30T12:56:54;6.53;;;6.13;;
6898;SDS011;3488;42.616;23.350;2022-07-30T12:59:23;7.13;;;6.53;;
6898;SDS011;3488;42.616;23.350;2022-07-30T13:01:51;6.97;;;6.38;;
6898;SDS011;3488;42.616;23.350;2022-07-30T13:04:18;6.57;;;6.18;;
6898;SDS011;3488;42.616;23.350;2022-07-30T13:09:32;6.57;;;6.10;;
6898;SDS011;3488;42.616;23.350;2022-07-30T13:12:00;6.45;;;5.95;;
6898;SDS011;3488;42.616;23.350;2022-07-30T13:14:27;6.82;;;6.32;;
6898;SDS011;3488;42.616;23.350;2022-07-30T13:16:54;6.63;;;6.22;;
6898;SDS011;3488;42.616;23.350;2022-07-30T13:19:22;8.10;;;6.38;;
6898;SDS011;3488;42.616;23.350;2022-07-30T13:21:49;7.00;;;6.50;;
6898;SDS011;3488;42.616;23.350;2022-07-30T13:24:18;8.25;;;7.00;;
6898;SDS011;3488;42.616;23.350;2022-07-30T13:26:46;7.15;;;6.57;;
6898;SDS011;3488;42.616;23.350;2022-07-30T13:29:13;5.82;;;5.45;;
6898;SDS011;3488;42.616;23.350;2022-07-30T13:31:40;7.00;;;6.50;;
6898;SDS011;3488;42.616;23.350;2022-07-30T13:34:07;6.72;;;6.25;;
6898;SDS011;3488;42.616;23.350;2022-07-30T13:36:34;7.10;;;6.53;;
6898;SDS011;3488;42.616;23.350;2022-07-30T13:39:01;6.93;;;6.43;;
6898;SDS011;3488;42.616;23.350;2022-07-30T13:41:29;7.07;;;6.35;;
6898;SDS011;3488;42.616;23.350;2022-07-30T13:43:57;6.28;;;5.80;;
6898;SDS011;3488;42.616;23.350;2022-07-30T13:46:24;6.57;;;5.97;;
6898;SDS011;3488;42.616;23.350;2022-07-30T13:48:50;6.93;;;6.40;;
6898;SDS011;3488;42.616;23.350;2022-07-30T13:51:17;7.55;;;7.03;;
6898;SDS011;3488;42.616;23.350;2022-07-30T13:53:44;7.95;;;6.50;;
6898;SDS011;3488;42.616;23.350;2022-07-30T13:56:11;6.95;;;6.10;;
6898;SDS011;3488;42.616;23.350;2022-07-30T13:58:39;8.43;;;6.72;;
6898;SDS011;3488;42.616;23.350;2022-07-30T14:01:06;9.32;;;7.82;;
6898;SDS011;3488;42.616;23.350;2022-07-30T14:03:36;9.30;;;8.40;;
6898;SDS011;3488;42.616;23.350;2022-07-30T14:06:03;7.95;;;6.95;;
6898;SDS011;3488;42.616;23.350;2022-07-30T14:08:30;6.28;;;5.88;;
6898;SDS011;3488;42.616;23.350;2022-07-30T14:10:57;6.22;;;5.80;;
6898;SDS011;3488;42.616;23.350;2022-07-30T14:13:24;6.03;;;5.53;;
6898;SDS011;3488;42.616;23.350;2022-07-30T14:15:52;6.90;;;6.30;;
6898;SDS011;3488;42.616;23.350;2022-07-30T14:18:20;6.38;;;5.78;;
6898;SDS011;3488;42.616;23.350;2022-07-30T14:20:46;6.28;;;5.82;;
6898;SDS011;3488;42.616;23.350;2022-07-30T14:23:16;7.07;;;6.57;;
6898;SDS011;3488;42.616;23.350;2022-07-30T14:25:43;5.68;;;5.38;;
6898;SDS011;3488;42.616;23.350;2022-07-30T14:28:10;6.70;;;6.10;;
6898;SDS011;3488;42.616;23.350;2022-07-30T14:30:37;6.32;;;5.70;;
6898;SDS011;3488;42.616;23.350;2022-07-30T14:33:05;7.53;;;5.20;;
6898;SDS011;3488;42.616;23.350;2022-07-30T14:35:32;5.72;;;5.32;;
6898;SDS011;3488;42.616;23.350;2022-07-30T14:37:59;5.95;;;5.43;;
6898;SDS011;3488;42.616;23.350;2022-07-30T14:40:27;5.75;;;5.40;;
6898;SDS011;3488;42.616;23.350;2022-07-30T14:42:54;8.35;;;6.03;;
6898;SDS011;3488;42.616;23.350;2022-07-30T14:45:21;5.35;;;4.95;;
6898;SDS011;3488;42.616;23.350;2022-07-30T14:47:48;6.55;;;5.30;;
6898;SDS011;3488;42.616;23.350;2022-07-30T14:50:17;5.95;;;5.43;;
6898;SDS011;3488;42.616;23.350;2022-07-30T14:52:43;5.70;;;5.15;;
6898;SDS011;3488;42.616;23.350;2022-07-30T14:55:11;5.50;;;5.13;;
6898;SDS011;3488;42.616;23.350;2022-07-30T14:57:38;6.35;;;5.78;;
6898;SDS011;3488;42.616;23.350;2022-07-30T15:00:05;5.20;;;4.90;;
6898;SDS011;3488;42.616;23.350;2022-07-30T15:02:35;6.15;;;5.55;;
6898;SDS011;3488;42.616;23.350;2022-07-30T15:05:02;5.57;;;5.18;;
6898;SDS011;3488;42.616;23.350;2022-07-30T15:07:31;5.80;;;5.30;;
6898;SDS011;3488;42.616;23.350;2022-07-30T15:09:58;5.03;;;4.50;;
6898;SDS011;3488;42.616;23.350;2022-07-30T15:12:25;6.80;;;5.47;;
6898;SDS011;3488;42.616;23.350;2022-07-30T15:14:52;5.50;;;5.10;;
6898;SDS011;3488;42.616;23.350;2022-07-30T15:17:19;5.65;;;5.15;;
6898;SDS011;3488;42.616;23.350;2022-07-30T15:19:46;6.10;;;5.60;;
6898;SDS011;3488;42.616;23.350;2022-07-30T15:22:13;5.38;;;5.07;;
6898;SDS011;3488;42.616;23.350;2022-07-30T15:24:42;5.38;;;5.05;;
6898;SDS011;3488;42.616;23.350;2022-07-30T15:27:09;5.70;;;5.40;;
6898;SDS011;3488;42.616;23.350;2022-07-30T15:29:36;8.90;;;7.40;;
6898;SDS011;3488;42.616;23.350;2022-07-30T15:32:02;7.07;;;6.32;;